Time;durP1;ratioP1;P1;durP2;ratioP2;P2;SDS_P1;SDS_P2;PMS_P1;PMS_P2;Temp;Humidity;BMP_temperature;BMP_pressure;BME280_temperature;BME280_humidity;BME280_pressure;Samples;Min_cycle;Max_cycle;Signal;HPM_P1;HPM_P2
2023/04/15 00:00:43;;;;;;;10.63;5.57;;;;;;;10.40;63.92;94304.41;5013471;28;20231;-69
2023/04/15 00:03:10;;;;;;;7.15;4.70;;;;;;;10.40;64.78;94309.50;5013479;28;20231;-69
2023/04/15 00:05:38;;;;;;;8.18;5.18;;;;;;;10.45;65.16;94303.31;5014220;28;20210;-69
2023/04/15 00:08:05;;;;;;;6.80;5.40;;;;;;;10.51;65.83;94307.31;5012755;28;20273;-70
2023/04/15 00:10:32;;;;;;;8.25;6.03;;;;;;;10.60;67.27;94301.00;5013441;28;20223;-69
2023/04/15 00:12:58;;;;;;;8.40;5.85;;;;;;;10.72;66.68;94298.72;5013583;28;20309;-69
2023/04/15 00:15:25;;;;;;;7.55;5.38;;;;;;;11.03;63.43;94298.09;5013731;28;20356;-69
2023/04/15 00:17:52;;;;;;;10.43;4.80;;;;;;;10.93;62.32;94298.59;5013535;28;20208;-69
2023/04/15 00:20:19;;;;;;;7.03;5.75;;;;;;;10.73;63.46;94295.28;5013888;28;20224;-69
2023/04/15 00:22:47;;;;;;;7.53;6.07;;;;;;;10.47;64.06;94290.56;5013178;28;20299;-70
2023/04/15 00:25:15;;;;;;;6.55;5.50;;;;;;;10.47;64.25;94296.47;5013072;28;21104;-70
2023/04/15 00:27:42;;;;;;;8.30;6.10;;;;;;;10.47;65.06;94298.19;5014038;28;20610;-70
2023/04/15 00:30:10;;;;;;;8.75;5.95;;;;;;;10.34;66.05;94295.38;5013613;28;20603;-70
2023/04/15 00:32:37;;;;;;;8.48;6.13;;;;;;;10.26;67.40;94306.75;5013212;28;20211;-70
2023/04/15 00:35:04;;;;;;;7.55;6.07;;;;;;;10.38;67.72;94318.94;5012791;28;20262;-69
2023/04/15 00:37:31;;;;;;;7.47;6.65;;;;;;;10.61;67.49;94313.63;5013188;28;20235;-69
2023/04/15 00:39:59;;;;;;;9.73;6.40;;;;;;;10.85;67.61;94317.59;5013515;28;20310;-70
2023/04/15 00:42:26;;;;;;;9.80;6.30;;;;;;;11.03;67.08;94308.28;5013293;28;20321;-70
2023/04/15 00:44:53;;;;;;;11.07;7.00;;;;;;;11.06;67.73;94299.69;5013171;28;20290;-69
2023/04/15 00:47:21;;;;;;;7.20;6.40;;;;;;;11.18;67.93;94294.00;5013771;28;20652;-70
2023/04/15 00:49:48;;;;;;;11.50;6.70;;;;;;;11.38;66.04;94295.59;5013147;28;20772;-69
2023/04/15 00:52:15;;;;;;;9.25;6.80;;;;;;;11.39;67.74;94287.88;5013380;28;21111;-70
2023/04/15 00:54:41;;;;;;;10.32;6.80;;;;;;;11.21;67.56;94293.84;5013791;28;20204;-68
2023/04/15 00:57:10;;;;;;;8.68;6.60;;;;;;;10.88;68.46;94297.13;5013009;28;20277;-68
2023/04/15 00:59:37;;;;;;;8.63;6.22;;;;;;;10.84;68.60;94295.63;5012103;28;20317;-69
2023/04/15 01:02:03;;;;;;;8.80;6.10;;;;;;;10.65;69.91;94312.59;5013363;28;20239;-68
2023/04/15 01:04:30;;;;;;;12.02;6.72;;;;;;;10.49;70.17;94312.47;5014665;28;20238;-70
2023/04/15 01:06:57;;;;;;;8.52;6.57;;;;;;;10.47;71.46;94315.97;5017849;28;20199;-69
2023/04/15 01:09:24;;;;;;;7.75;6.95;;;;;;;10.38;70.91;94316.41;5016371;28;20748;-69
2023/04/15 01:11:51;;;;;;;10.82;6.13;;;;;;;10.52;68.63;94319.13;5016322;28;20243;-68
2023/04/15 01:14:19;;;;;;;8.05;6.57;;;;;;;10.35;70.00;94314.00;5016649;28;20584;-67
2023/04/15 01:16:46;;;;;;;9.90;6.68;;;;;;;10.22;71.08;94301.00;5017014;28;20231;-69
2023/04/15 01:19:16;;;;;;;8.45;7.20;;;;;;;10.11;71.67;94314.16;5016476;28;20369;-69
2023/04/15 01:21:43;;;;;;;10.18;6.97;;;;;;;10.14;72.34;94308.94;5016479;28;20317;-69
2023/04/15 01:24:11;;;;;;;8.85;6.03;;;;;;;10.39;73.47;94307.88;5016943;28;20780;-69
2023/04/15 01:26:40;;;;;;;7.40;6.13;;;;;;;10.48;73.21;94304.91;5017235;28;20207;-70
2023/04/15 01:29:07;;;;;;;11.05;6.68;;;;;;;10.44;73.10;94294.06;5016768;28;20227;-69
2023/04/15 01:31:34;;;;;;;9.40;6.25;;;;;;;10.33;72.01;94296.28;5016909;28;20200;-69
2023/04/15 01:34:01;;;;;;;7.85;6.43;;;;;;;10.38;72.14;94303.69;5015861;28;20223;-69
2023/04/15 01:36:28;;;;;;;13.55;6.88;;;;;;;10.43;71.92;94306.81;5016278;28;20262;-68
2023/04/15 01:38:56;;;;;;;7.50;6.38;;;;;;;10.35;72.72;94306.38;5015825;28;20230;-69
2023/04/15 01:41:25;;;;;;;7.53;6.70;;;;;;;10.31;73.41;94307.41;5016399;28;20705;-67
2023/04/15 01:43:54;;;;;;;13.70;6.70;;;;;;;10.37;75.16;94315.56;5017009;28;20982;-69
2023/04/15 01:46:21;;;;;;;12.00;8.48;;;;;;;10.29;75.77;94311.72;5016332;28;20325;-68
2023/04/15 01:48:47;;;;;;;9.45;6.93;;;;;;;10.13;75.13;94312.38;5016981;28;20654;-69
2023/04/15 01:51:14;;;;;;;8.77;6.65;;;;;;;10.09;75.82;94310.03;5015845;28;20744;-69
2023/04/15 01:53:41;;;;;;;12.32;7.82;;;;;;;10.10;75.95;94317.56;5016433;28;20308;-69
2023/04/15 01:56:08;;;;;;;7.35;6.63;;;;;;;10.21;76.28;94301.88;5016331;28;20353;-68
2023/04/15 01:58:35;;;;;;;12.38;6.88;;;;;;;10.26;75.45;94314.38;5017980;28;20293;-67
2023/04/15 02:01:03;;;;;;;8.20;6.60;;;;;;;10.20;76.04;94323.09;5015599;28;20261;-68
2023/04/15 02:03:30;;;;;;;9.60;7.07;;;;;;;10.08;76.33;94321.88;5016041;28;20211;-68
2023/04/15 02:05:57;;;;;;;7.97;6.90;;;;;;;10.18;73.64;94324.84;5016738;28;20330;-68
2023/04/15 02:08:24;;;;;;;10.68;6.70;;;;;;;10.14;72.81;94328.44;5016322;28;20242;-68
2023/04/15 02:10:51;;;;;;;10.63;7.05;;;;;;;9.99;74.27;94324.81;5015863;28;20354;-68
2023/04/15 02:13:18;;;;;;;10.93;6.47;;;;;;;9.89;75.00;94314.25;5015709;28;20224;-69
2023/04/15 02:15:48;;;;;;;8.48;6.85;;;;;;;9.91;75.76;94319.22;5015663;28;20666;-68
2023/04/15 02:18:16;;;;;;;9.93;7.07;;;;;;;9.88;76.22;94320.22;5017228;28;20203;-69
2023/04/15 02:20:43;;;;;;;8.23;7.38;;;;;;;9.86;75.93;94323.72;5015223;28;20318;-68
2023/04/15 02:23:10;;;;;;;10.43;6.60;;;;;;;9.86;75.24;94318.63;5016707;28;20225;-68
2023/04/15 02:25:37;;;;;;;10.93;7.13;;;;;;;9.74;75.21;94309.81;5017733;28;20282;-68
2023/04/15 02:28:05;;;;;;;8.48;6.38;;;;;;;9.67;74.84;94310.13;5015866;28;20238;-67
2023/04/15 02:30:32;;;;;;;8.15;7.32;;;;;;;9.63;74.78;94311.16;5015325;28;20290;-68
2023/04/15 02:32:59;;;;;;;10.57;7.15;;;;;;;9.63;74.86;94311.16;5016512;28;20297;-68
2023/04/15 02:35:27;;;;;;;12.02;7.60;;;;;;;9.60;74.91;94318.91;5015370;28;20720;-69
2023/04/15 02:37:54;;;;;;;11.10;7.40;;;;;;;9.61;74.77;94323.09;5014693;28;20645;-68
2023/04/15 02:40:21;;;;;;;8.10;6.85;;;;;;;9.45;74.94;94323.69;5015592;28;20227;-68
2023/04/15 02:42:47;;;;;;;8.48;6.93;;;;;;;9.27;74.44;94324.47;5014146;28;20649;-69
2023/04/15 02:45:14;;;;;;;14.48;6.28;;;;;;;9.19;74.16;94326.47;5015791;28;20200;-67
2023/04/15 02:47:42;;;;;;;13.27;6.70;;;;;;;9.34;73.60;94340.25;5015126;28;20802;-69
2023/04/15 02:50:11;;;;;;;7.47;6.10;;;;;;;9.19;72.96;94332.34;5015015;28;20712;-68
2023/04/15 02:52:40;;;;;;;14.98;7.57;;;;;;;9.19;73.61;94323.94;5016099;28;20294;-68
2023/04/15 02:55:08;;;;;;;7.65;6.80;;;;;;;9.08;73.24;94323.53;5015265;28;20207;-69
2023/04/15 02:57:36;;;;;;;13.65;8.18;;;;;;;8.97;74.41;94325.66;5015245;28;20203;-69
2023/04/15 03:00:03;;;;;;;11.32;7.55;;;;;;;9.09;74.66;94322.66;5014137;28;20219;-68
2023/04/15 03:02:34;;;;;;;13.13;8.05;;;;;;;9.11;73.84;94333.56;5014688;28;20241;-67
2023/04/15 03:05:01;;;;;;;11.18;8.05;;;;;;;8.98;74.65;94334.91;5016160;28;20200;-68
2023/04/15 03:07:27;;;;;;;13.07;8.07;;;;;;;8.90;74.32;94327.63;5014457;28;20203;-69
2023/04/15 03:09:55;;;;;;;7.80;6.63;;;;;;;9.02;74.04;94346.59;5015240;28;20634;-69
2023/04/15 03:12:22;;;;;;;10.23;8.00;;;;;;;9.03;72.22;94351.59;5013048;28;20239;-68
2023/04/15 03:14:49;;;;;;;7.25;6.20;;;;;;;8.91;73.25;94346.19;5013698;28;21037;-68
2023/04/15 03:17:16;;;;;;;9.65;6.15;;;;;;;8.69;74.04;94346.97;5013266;28;20227;-69
2023/04/15 03:19:44;;;;;;;7.25;6.50;;;;;;;8.54;74.30;94342.50;5012582;28;20211;-69
2023/04/15 03:22:10;;;;;;;16.40;6.88;;;;;;;8.47;75.13;94346.97;5013420;28;20215;-68
2023/04/15 03:24:37;;;;;;;6.68;5.30;;;;;;;8.50;74.83;94353.63;5013200;28;20285;-69
2023/04/15 03:27:06;;;;;;;10.63;7.10;;;;;;;8.38;75.25;94351.56;5012913;28;20675;-69
2023/04/15 03:29:33;;;;;;;13.10;6.35;;;;;;;8.45;75.50;94363.09;5015434;28;20287;-69
2023/04/15 03:32:00;;;;;;;9.35;6.82;;;;;;;8.58;74.60;94364.31;5015086;28;20231;-69
2023/04/15 03:34:27;;;;;;;10.30;6.38;;;;;;;8.50;74.45;94374.72;5015070;28;20230;-69
2023/04/15 03:36:54;;;;;;;7.40;6.63;;;;;;;8.46;75.11;94374.88;5013006;28;20326;-69
2023/04/15 03:39:20;;;;;;;8.30;6.35;;;;;;;8.53;74.61;94381.38;5014577;28;20314;-69
2023/04/15 03:41:47;;;;;;;12.15;6.57;;;;;;;8.37;74.05;94393.75;5014181;28;20327;-69
2023/04/15 03:44:15;;;;;;;6.82;6.10;;;;;;;8.38;74.62;94381.94;5014663;28;20238;-69
2023/04/15 03:46:42;;;;;;;9.95;6.50;;;;;;;8.48;73.72;94393.38;5014669;28;20227;-68
2023/04/15 03:49:08;;;;;;;7.75;6.47;;;;;;;8.51;73.80;94393.25;5014900;28;20230;-69
2023/04/15 03:51:35;;;;;;;8.18;6.68;;;;;;;8.33;74.29;94401.53;5014170;28;20215;-69
2023/04/15 03:54:02;;;;;;;9.93;6.03;;;;;;;8.32;74.26;94402.38;5013886;28;20204;-70
2023/04/15 03:56:29;;;;;;;9.57;7.30;;;;;;;8.22;73.58;94403.56;5015184;28;20273;-69
2023/04/15 03:58:56;;;;;;;8.95;5.93;;;;;;;8.17;74.94;94391.88;5014244;28;20668;-68
2023/04/15 04:01:24;;;;;;;6.00;5.50;;;;;;;8.25;73.63;94398.38;5013860;28;20227;-69
2023/04/15 04:03:51;;;;;;;6.57;5.40;;;;;;;8.18;73.42;94391.00;5013807;28;20297;-69
2023/04/15 04:06:17;;;;;;;6.70;5.85;;;;;;;8.31;73.59;94390.59;5014220;28;20203;-69
2023/04/15 04:08:44;;;;;;;9.98;6.65;;;;;;;8.26;72.78;94393.28;5014049;28;20378;-70
2023/04/15 04:11:11;;;;;;;5.82;5.32;;;;;;;8.43;73.41;94397.75;5013624;28;20211;-70
2023/04/15 04:13:38;;;;;;;8.15;6.53;;;;;;;8.56;73.30;94390.56;5013643;28;21894;-69
2023/04/15 04:16:05;;;;;;;7.07;6.38;;;;;;;8.70;72.72;94388.34;5013196;28;20265;-68
2023/04/15 04:18:33;;;;;;;5.63;5.05;;;;;;;8.81;72.45;94392.13;5014902;28;20288;-69
2023/04/15 04:21:00;;;;;;;7.70;6.05;;;;;;;8.90;72.03;94395.22;5012715;28;20339;-69
2023/04/15 04:23:27;;;;;;;6.55;5.90;;;;;;;8.88;72.37;94396.97;5013790;28;20290;-69
2023/04/15 04:25:54;;;;;;;9.40;6.13;;;;;;;9.03;72.29;94398.94;5014379;28;20696;-68
2023/04/15 04:28:21;;;;;;;7.45;6.50;;;;;;;9.16;71.70;94412.75;5014346;28;20316;-70
2023/04/15 04:30:47;;;;;;;12.05;7.10;;;;;;;9.92;70.82;94406.34;5013454;28;20200;-67
2023/04/15 04:33:14;;;;;;;9.05;6.50;;;;;;;11.80;66.15;94402.13;5013749;28;21031;-68
2023/04/15 04:35:42;;;;;;;9.38;6.75;;;;;;;14.59;56.37;94401.41;5013768;28;20317;-69
2023/04/15 04:38:09;;;;;;;10.30;7.18;;;;;;;17.20;50.18;94384.47;5015028;28;20294;-68
2023/04/15 04:40:36;;;;;;;10.25;8.35;;;;;;;18.91;45.27;94394.13;5017387;28;20223;-69
2023/04/15 04:43:03;;;;;;;14.20;8.30;;;;;;;19.99;42.52;94387.34;5017183;28;20292;-67
2023/04/15 04:45:30;;;;;;;10.43;7.25;;;;;;;20.76;40.96;94379.28;5017565;28;20293;-68
2023/04/15 04:47:56;;;;;;;10.32;7.85;;;;;;;21.62;39.14;94387.31;5017166;28;20207;-69
2023/04/15 04:50:23;;;;;;;11.30;8.43;;;;;;;22.47;36.48;94391.00;5017757;28;20678;-69
2023/04/15 04:52:51;;;;;;;10.13;7.07;;;;;;;23.17;35.41;94389.69;5016435;28;20685;-70
2023/04/15 04:55:18;;;;;;;10.40;6.63;;;;;;;23.67;34.18;94388.34;5017163;28;20760;-68
2023/04/15 04:57:45;;;;;;;8.55;7.72;;;;;;;24.12;33.36;94392.66;5017093;28;20300;-68
2023/04/15 05:00:13;;;;;;;7.43;6.60;;;;;;;24.47;31.18;94398.81;5017503;28;20322;-69
2023/04/15 05:02:40;;;;;;;7.07;6.13;;;;;;;24.34;31.70;94400.00;5017786;28;20227;-69
2023/04/15 05:05:08;;;;;;;9.30;6.18;;;;;;;24.37;31.66;94397.09;5017513;28;20207;-68
2023/04/15 05:07:35;;;;;;;6.80;6.30;;;;;;;24.04;30.77;94400.34;5017239;28;20296;-69
2023/04/15 05:10:03;;;;;;;10.20;7.65;;;;;;;23.86;31.34;94409.94;5017498;28;20206;-70
2023/04/15 05:12:30;;;;;;;9.35;7.13;;;;;;;23.71;31.21;94420.81;5016766;28;20215;-68
2023/04/15 05:14:56;;;;;;;7.55;6.85;;;;;;;23.96;31.62;94426.25;5017197;28;20207;-68
2023/04/15 05:17:23;;;;;;;7.70;6.80;;;;;;;23.98;30.56;94429.53;5016739;28;20303;-69
2023/04/15 05:19:50;;;;;;;7.18;6.57;;;;;;;24.38;29.18;94429.09;5017004;28;20697;-67
2023/04/15 05:22:17;;;;;;;6.65;6.05;;;;;;;24.86;29.04;94426.00;5016977;28;20290;-69
2023/04/15 05:24:43;;;;;;;6.90;6.25;;;;;;;25.30;28.42;94423.34;5016826;28;20787;-70
2023/04/15 05:27:11;;;;;;;8.45;6.15;;;;;;;25.30;28.35;94428.53;5017078;28;20251;-68
2023/04/15 05:29:38;;;;;;;6.70;5.70;;;;;;;25.11;28.34;94433.97;5016316;28;20322;-70
2023/04/15 05:32:06;;;;;;;5.93;5.43;;;;;;;24.40;28.87;94425.38;5015454;28;20235;-68
2023/04/15 05:34:32;;;;;;;6.28;4.93;;;;;;;24.72;28.14;94413.59;5016936;28;20203;-66
2023/04/15 05:36:59;;;;;;;6.35;5.75;;;;;;;25.00;28.09;94416.84;5016007;28;20263;-67
2023/04/15 05:39:26;;;;;;;6.38;5.80;;;;;;;25.16;27.60;94410.94;5016982;28;20220;-68
2023/04/15 05:41:53;;;;;;;7.68;6.50;;;;;;;25.25;28.19;94410.78;5016191;28;20235;-69
2023/04/15 05:44:21;;;;;;;6.95;5.78;;;;;;;25.64;27.95;94421.56;5016538;28;20211;-68
2023/04/15 05:46:48;;;;;;;7.72;4.93;;;;;;;26.42;26.59;94423.81;5016820;28;20289;-67
2023/04/15 05:49:14;;;;;;;6.05;5.38;;;;;;;27.24;25.72;94419.28;5015364;28;20294;-68
2023/04/15 05:51:41;;;;;;;6.63;4.90;;;;;;;28.33;24.52;94424.50;5016049;28;20319;-69
2023/04/15 05:54:08;;;;;;;5.60;5.00;;;;;;;30.21;23.53;94427.53;5016031;28;20290;-66
2023/04/15 05:56:35;;;;;;;10.45;5.93;;;;;;;31.49;21.74;94426.53;5015247;28;20693;-68
2023/04/15 05:59:01;;;;;;;6.05;5.07;;;;;;;32.44;20.17;94427.28;5016723;28;20358;-68
2023/04/15 06:01:30;;;;;;;5.40;4.90;;;;;;;33.11;19.51;94422.88;5015623;28;20361;-69
2023/04/15 06:03:57;;;;;;;5.80;5.30;;;;;;;33.02;19.09;94421.44;5015611;28;20231;-71
2023/04/15 06:06:24;;;;;;;7.57;4.93;;;;;;;33.27;19.13;94429.53;5016141;28;20325;-69
2023/04/15 06:08:51;;;;;;;6.18;4.80;;;;;;;33.87;18.65;94424.94;5016875;28;20338;-70
2023/04/15 06:11:17;;;;;;;5.45;5.00;;;;;;;34.95;17.33;94429.13;5015819;28;20718;-69
2023/04/15 06:13:44;;;;;;;5.55;4.90;;;;;;;36.28;16.93;94426.69;5015444;28;20405;-67
2023/04/15 06:16:11;;;;;;;5.28;4.97;;;;;;;37.98;15.33;94431.16;5016463;28;20294;-69
2023/04/15 06:18:39;;;;;;;5.20;4.82;;;;;;;38.50;14.95;94417.81;5016356;28;20295;-68
2023/04/15 06:21:06;;;;;;;5.75;5.22;;;;;;;39.07;14.81;94439.81;5016098;28;20226;-69
2023/04/15 06:23:35;;;;;;;6.60;5.97;;;;;;;40.08;14.29;94446.53;5015409;28;20239;-66
2023/04/15 06:26:01;;;;;;;6.40;5.40;;;;;;;40.03;13.77;94443.81;5016126;28;20208;-71
2023/04/15 06:28:28;;;;;;;6.18;5.68;;;;;;;39.55;14.60;94441.84;5014634;28;20694;-69
2023/04/15 06:30:55;;;;;;;6.25;5.63;;;;;;;39.57;14.25;94450.38;5015258;28;21637;-70
2023/04/15 06:33:22;;;;;;;7.47;5.53;;;;;;;39.33;14.50;94454.28;5015442;28;20261;-67
2023/04/15 06:35:50;;;;;;;7.47;5.50;;;;;;;38.67;14.36;94450.53;5015689;28;20312;-68
2023/04/15 06:38:17;;;;;;;7.30;5.80;;;;;;;39.02;14.51;94453.00;5016091;28;20230;-69
2023/04/15 06:40:43;;;;;;;6.90;5.35;;;;;;;40.02;14.18;94455.50;5015399;28;20444;-69
2023/04/15 06:43:10;;;;;;;8.43;6.22;;;;;;;40.91;13.54;94464.94;5015372;28;20234;-66
2023/04/15 06:45:37;;;;;;;7.50;6.25;;;;;;;41.66;12.71;94456.72;5014783;28;20935;-68
2023/04/15 06:48:04;;;;;;;11.80;8.07;;;;;;;40.40;13.21;94464.44;5015334;28;20239;-69
2023/04/15 06:50:31;;;;;;;8.23;5.93;;;;;;;41.00;13.41;94458.91;5016588;28;20208;-68
2023/04/15 06:52:59;;;;;;;7.20;6.50;;;;;;;40.75;13.26;94453.38;5016564;28;20696;-69
2023/04/15 06:55:26;;;;;;;5.45;4.97;;;;;;;41.05;12.55;94461.63;5015736;28;20204;-71
2023/04/15 06:57:53;;;;;;;7.82;5.97;;;;;;;40.98;13.42;94461.03;5015085;28;20270;-69
2023/04/15 07:00:20;;;;;;;7.13;6.38;;;;;;;40.91;13.08;94455.09;5015515;28;20292;-69
2023/04/15 07:02:46;;;;;;;12.93;5.93;;;;;;;41.21;13.48;94459.09;5013336;28;20235;-69
2023/04/15 07:05:14;;;;;;;8.15;5.72;;;;;;;41.86;12.91;94433.84;5015634;28;20239;-68
2023/04/15 07:07:41;;;;;;;9.07;6.50;;;;;;;41.90;12.66;94451.75;5014401;28;20849;-68
2023/04/15 07:10:10;;;;;;;7.68;6.55;;;;;;;42.05;12.09;94453.75;5014281;28;20736;-69
2023/04/15 07:12:37;;;;;;;6.45;5.75;;;;;;;42.53;12.13;94451.75;5014268;28;20208;-68
2023/04/15 07:15:05;;;;;;;5.88;5.38;;;;;;;42.73;11.80;94443.75;5015168;28;20208;-70
2023/04/15 07:17:32;;;;;;;6.07;5.15;;;;;;;42.34;12.32;94446.84;5014776;28;20277;-67
2023/04/15 07:19:58;;;;;;;5.60;4.18;;;;;;;43.20;11.74;94445.38;5014730;28;20204;-69
2023/04/15 07:22:26;;;;;;;5.07;4.68;;;;;;;42.65;11.46;94441.59;5015070;28;20223;-68
2023/04/15 07:24:52;;;;;;;17.98;13.95;;;;;;;43.65;11.16;94450.69;5015020;28;20214;-68
2023/04/15 07:27:21;;;;;;;5.05;4.55;;;;;;;43.85;11.09;94449.81;5014050;28;20821;-70
2023/04/15 07:29:48;;;;;;;5.10;4.57;;;;;;;43.96;11.18;94446.03;5013842;28;20689;-69
2023/04/15 07:32:15;;;;;;;5.43;4.00;;;;;;;44.56;11.37;94454.06;5015126;28;20235;-70
2023/04/15 07:34:42;;;;;;;8.48;7.57;;;;;;;44.60;10.73;94449.75;5014026;28;20235;-69
2023/04/15 07:37:08;;;;;;;4.95;4.50;;;;;;;43.63;10.84;94444.81;5012759;28;20262;-68
2023/04/15 07:39:35;;;;;;;5.25;4.75;;;;;;;42.61;11.41;94451.22;5013714;28;20230;-70
2023/04/15 07:42:02;;;;;;;5.10;4.18;;;;;;;42.31;11.87;94447.41;5013448;28;20231;-70
2023/04/15 07:44:31;;;;;;;5.28;4.78;;;;;;;42.88;11.61;94451.81;5014758;28;20239;-68
2023/04/15 07:46:58;;;;;;;4.80;4.40;;;;;;;43.13;11.00;94450.19;5013324;28;20243;-71
2023/04/15 07:49:24;;;;;;;6.07;4.47;;;;;;;42.19;11.99;94448.69;5012689;28;20208;-72
2023/04/15 07:51:51;;;;;;;4.68;3.80;;;;;;;42.60;11.13;94454.94;5013025;28;20212;-70
2023/04/15 07:54:18;;;;;;;4.30;3.13;;;;;;;43.53;11.08;94463.56;5013433;28;20257;-69
2023/04/15 07:56:45;;;;;;;6.30;5.68;;;;;;;44.04;10.06;94461.56;5012836;28;20208;-69
2023/04/15 07:59:14;;;;;;;8.27;7.68;;;;;;;44.89;10.31;94463.25;5012241;28;20789;-70
2023/04/15 08:01:42;;;;;;;2.40;2.20;;;;;;;45.36;9.35;94476.03;5014129;28;20239;-70
2023/04/15 08:04:10;;;;;;;3.15;1.58;;;;;;;45.48;9.17;94471.09;5012611;28;20203;-72
2023/04/15 08:06:38;;;;;;;1.60;1.50;;;;;;;45.12;9.56;94467.91;5012973;28;20569;-68
2023/04/15 08:09:05;;;;;;;2.88;2.00;;;;;;;45.50;9.29;94468.94;5013072;28;20200;-69
2023/04/15 08:11:32;;;;;;;1.92;1.63;;;;;;;45.84;9.49;94460.00;5013002;28;20227;-69
2023/04/15 08:13:59;;;;;;;1.55;1.30;;;;;;;46.15;9.07;94461.25;5013807;28;20211;-71
2023/04/15 08:16:27;;;;;;;2.17;1.77;;;;;;;46.40;9.47;94463.63;5013290;28;20318;-71
2023/04/15 08:18:56;;;;;;;1.73;1.45;;;;;;;46.45;8.65;94467.34;5013141;28;20233;-69
2023/04/15 08:21:23;;;;;;;2.95;1.80;;;;;;;44.93;9.80;94465.09;5013658;28;20779;-70
2023/04/15 08:23:53;;;;;;;2.58;2.30;;;;;;;44.79;9.37;94472.19;5013394;28;20211;-71
2023/04/15 08:26:21;;;;;;;4.90;4.60;;;;;;;44.07;9.58;94465.56;5013629;28;20296;-67
2023/04/15 08:28:48;;;;;;;2.28;2.15;;;;;;;42.85;10.00;94468.38;5012873;28;20213;-69
2023/04/15 08:31:16;;;;;;;2.53;2.33;;;;;;;39.26;12.09;94464.25;5011403;28;20258;-67
2023/04/15 08:33:43;;;;;;;2.25;1.42;;;;;;;35.67;13.79;94472.53;5010921;28;20753;-68
2023/04/15 08:36:12;;;;;;;1.30;1.20;;;;;;;32.65;16.02;94465.78;5011893;28;21123;-71
2023/04/15 08:38:39;;;;;;;1.20;1.10;;;;;;;30.69;17.89;94461.88;5012274;28;20230;-71
2023/04/15 08:41:11;;;;;;;2.10;2.00;;;;;;;29.24;19.17;94455.72;5012173;28;20239;-69
2023/04/15 08:43:47;;;;;;;14.60;9.98;;;;;;;27.14;22.00;94457.81;5012643;28;20357;-70
2023/04/15 08:46:14;;;;;;;5.45;4.95;;;;;;;25.57;23.45;94467.34;5013008;28;20230;-71
2023/04/15 08:48:42;;;;;;;2.75;2.20;;;;;;;25.34;23.89;94467.09;5011750;28;20782;-68
2023/04/15 08:51:09;;;;;;;3.90;1.63;;;;;;;28.68;20.50;94454.44;5010695;28;20317;-70
2023/04/15 08:53:37;;;;;;;6.30;2.80;;;;;;;32.57;17.77;94442.28;5010782;28;20203;-72
2023/04/15 08:56:07;;;;;;;4.72;4.30;;;;;;;29.03;19.21;94443.34;5010953;28;20289;-71
2023/04/15 08:58:35;;;;;;;3.65;1.90;;;;;;;26.26;21.94;94468.84;5011302;28;20212;-71
2023/04/15 09:01:02;;;;;;;8.55;1.95;;;;;;;26.36;22.30;94458.34;5011185;28;20295;-73
2023/04/15 09:03:30;;;;;;;2.63;2.05;;;;;;;25.85;22.83;94467.16;5010823;28;20235;-71
2023/04/15 09:05:57;;;;;;;1.83;1.73;;;;;;;24.91;24.18;94454.97;5011478;28;20235;-70
2023/04/15 09:08:24;;;;;;;2.67;2.08;;;;;;;26.61;21.92;94446.13;5012483;28;20295;-73
2023/04/15 09:10:53;;;;;;;2.55;1.30;;;;;;;24.22;23.91;94458.31;5011714;28;20801;-70
2023/04/15 09:13:20;;;;;;;4.35;1.45;;;;;;;21.78;27.10;94453.22;5012752;28;20302;-69
2023/04/15 09:15:47;;;;;;;3.17;1.40;;;;;;;21.61;27.95;94452.09;5012505;28;20779;-69
2023/04/15 09:18:26;;;;;;;2.35;2.05;;;;;;;21.91;27.45;94448.59;5011232;28;20242;-68
2023/04/15 09:20:53;;;;;;;7.10;5.57;;;;;;;22.32;27.51;94443.19;5011196;28;20341;-67
2023/04/15 09:23:20;;;;;;;1.95;1.80;;;;;;;22.37;26.89;94446.19;5012616;28;20239;-66
2023/04/15 09:25:48;;;;;;;5.60;1.70;;;;;;;22.71;27.06;94427.63;5014357;28;20243;-67
2023/04/15 09:28:25;;;;;;;3.95;2.45;;;;;;;22.46;26.61;94439.38;5015856;28;20227;-67
2023/04/15 09:30:55;;;;;;;1.70;1.60;;;;;;;21.87;26.73;94436.88;5015267;28;20211;-66
2023/04/15 09:33:22;;;;;;;1.90;1.73;;;;;;;21.77;26.87;94438.66;5015788;28;20805;-67
2023/04/15 09:35:57;;;;;;;4.97;1.92;;;;;;;21.22;28.55;94441.66;5016063;28;20796;-67
2023/04/15 09:38:25;;;;;;;2.05;1.88;;;;;;;20.67;29.53;94450.59;5016347;28;20207;-68
2023/04/15 09:40:52;;;;;;;3.45;1.73;;;;;;;20.87;30.17;94447.16;5015810;28;20229;-67
2023/04/15 09:43:20;;;;;;;1.88;1.70;;;;;;;21.61;27.48;94446.91;5014905;28;20245;-67
2023/04/15 09:45:48;;;;;;;0.98;0.90;;;;;;;22.22;23.74;94439.81;5015901;28;20763;-67
2023/04/15 09:48:17;;;;;;;1.05;0.95;;;;;;;22.62;24.97;94428.44;5016259;28;20337;-68
2023/04/15 09:50:44;;;;;;;1.60;1.17;;;;;;;23.14;24.47;94441.81;5015932;28;20207;-69
2023/04/15 09:53:15;;;;;;;4.35;1.13;;;;;;;23.39;23.55;94451.53;5015199;28;20255;-68
2023/04/15 09:55:45;;;;;;;3.72;1.30;;;;;;;23.76;23.13;94445.53;5014697;28;20242;-68
2023/04/15 09:58:18;;;;;;;1.20;1.05;;;;;;;23.86;23.33;94433.28;5016034;28;20207;-68
2023/04/15 10:00:48;;;;;;;2.88;1.30;;;;;;;23.53;23.39;94448.47;5015780;28;20210;-67
2023/04/15 10:03:18;;;;;;;1.98;1.27;;;;;;;23.17;23.62;94449.31;5014565;28;20207;-66
2023/04/15 10:05:47;;;;;;;2.83;1.65;;;;;;;22.36;23.70;94436.78;5015536;28;20705;-67
2023/04/15 10:08:15;;;;;;;2.60;1.77;;;;;;;21.84;23.32;94437.16;5015733;28;20669;-65
2023/04/15 10:10:42;;;;;;;1.50;1.20;;;;;;;21.63;23.50;94456.19;5015241;28;20208;-66
2023/04/15 10:13:10;;;;;;;2.55;1.25;;;;;;;21.47;24.13;94430.03;5015010;28;21511;-67
2023/04/15 10:15:37;;;;;;;2.08;1.88;;;;;;;22.05;24.52;94438.69;5015297;28;20227;-66
2023/04/15 10:18:08;;;;;;;1.90;1.50;;;;;;;22.49;24.86;94451.22;5015870;28;20211;-67
2023/04/15 10:20:36;;;;;;;4.93;1.40;;;;;;;22.06;24.08;94439.50;5015436;28;20289;-67
2023/04/15 10:23:04;;;;;;;1.67;1.55;;;;;;;22.08;24.88;94427.25;5015164;28;20318;-67
2023/04/15 10:25:32;;;;;;;1.50;1.40;;;;;;;22.13;24.01;94429.44;5014204;28;20257;-68
2023/04/15 10:28:00;;;;;;;1.77;1.50;;;;;;;22.05;23.95;94417.19;5014704;28;20357;-68
2023/04/15 10:30:27;;;;;;;3.03;0.95;;;;;;;22.46;23.66;94417.84;5013925;28;20299;-66
2023/04/15 10:32:54;;;;;;;3.03;1.85;;;;;;;23.08;25.30;94402.56;5014561;28;20673;-67
2023/04/15 10:35:23;;;;;;;2.00;1.80;;;;;;;23.76;25.41;94414.38;5013726;28;20305;-67
2023/04/15 10:37:50;;;;;;;5.05;1.17;;;;;;;23.66;21.75;94409.25;5015501;28;20585;-68
2023/04/15 10:40:28;;;;;;;2.55;1.98;;;;;;;23.59;23.20;94403.81;5014625;28;20303;-67
2023/04/15 10:42:55;;;;;;;2.47;1.70;;;;;;;23.82;23.40;94408.59;5014428;28;20298;-65
2023/04/15 10:45:26;;;;;;;4.32;1.67;;;;;;;24.04;23.30;94405.56;5014992;28;20204;-66
2023/04/15 10:47:55;;;;;;;2.13;1.88;;;;;;;24.11;22.95;94409.19;5015211;28;20207;-67
2023/04/15 10:50:27;;;;;;;15.40;11.68;;;;;;;24.28;23.33;94412.75;5014675;28;20396;-67
2023/04/15 10:52:54;;;;;;;3.42;3.13;;;;;;;24.49;23.49;94417.66;5014563;28;20238;-66
2023/04/15 10:55:23;;;;;;;2.33;1.73;;;;;;;24.55;23.71;94411.84;5014513;28;20596;-66
2023/04/15 10:57:53;;;;;;;2.22;1.40;;;;;;;24.60;23.23;94402.63;5014161;28;20749;-66
2023/04/15 11:00:25;;;;;;;4.28;1.15;;;;;;;24.45;22.87;94395.53;5014770;28;20673;-66
2023/04/15 11:02:56;;;;;;;3.60;1.50;;;;;;;24.40;23.36;94394.22;5014377;28;20287;-67
2023/04/15 11:05:51;;;;;;;4.97;4.50;;;;;;;24.45;23.95;94385.16;5012917;28;20370;-69
2023/04/15 11:08:18;;;;;;;11.55;9.68;;;;;;;24.40;24.07;94389.00;5014354;28;20417;-67
2023/04/15 11:10:54;;;;;;;2.42;2.20;;;;;;;24.02;24.07;94386.72;5013522;28;20306;-64
2023/04/15 11:13:27;;;;;;;2.25;2.05;;;;;;;23.96;24.32;94395.13;5013214;28;20227;-68
2023/04/15 11:16:02;;;;;;;5.72;2.53;;;;;;;24.05;24.26;94395.03;5014453;28;20646;-66
2023/04/15 11:18:31;;;;;;;4.13;3.53;;;;;;;24.12;24.57;94390.06;5014247;28;20252;-67
2023/04/15 11:21:04;;;;;;;3.50;3.20;;;;;;;24.27;24.87;94393.75;5013681;28;20211;-68
2023/04/15 11:23:37;;;;;;;5.78;1.70;;;;;;;24.37;23.89;94373.72;5013138;28;20695;-67
2023/04/15 11:26:08;;;;;;;4.25;2.40;;;;;;;24.31;23.90;94384.72;5013626;28;20737;-67
2023/04/15 11:28:35;;;;;;;3.08;1.58;;;;;;;24.06;23.54;94380.25;5013616;28;20230;-67
2023/04/15 11:31:12;;;;;;;2.25;1.65;;;;;;;23.87;24.25;94385.63;5013054;28;20306;-67
2023/04/15 11:33:46;;;;;;;2.13;1.45;;;;;;;23.85;24.21;94382.34;5013231;28;20750;-66
2023/04/15 11:36:14;;;;;;;2.55;2.05;;;;;;;23.31;24.75;94394.38;5013415;28;20234;-66